sensor_id;sensor_type;location;lat;lon;timestamp;P1;durP1;ratioP1;P2;durP2;ratioP2
34134;SDS011;20410;55.578;12.968;2023-12-20T00:02:13;18.40;;;4.67;;
34134;SDS011;20410;55.578;12.968;2023-12-20T00:04:39;12.37;;;3.80;;
34134;SDS011;20410;55.578;12.968;2023-12-20T00:07:04;16.23;;;3.73;;
34134;SDS011;20410;55.578;12.968;2023-12-20T00:09:30;14.37;;;4.47;;
34134;SDS011;20410;55.578;12.968;2023-12-20T00:11:55;12.57;;;3.80;;
34134;SDS011;20410;55.578;12.968;2023-12-20T00:14:21;16.80;;;4.23;;
34134;SDS011;20410;55.578;12.968;2023-12-20T00:16:48;16.63;;;4.13;;
34134;SDS011;20410;55.578;12.968;2023-12-20T00:19:13;13.87;;;3.90;;
34134;SDS011;20410;55.578;12.968;2023-12-20T00:21:39;11.50;;;3.17;;
34134;SDS011;20410;55.578;12.968;2023-12-20T00:24:05;12.87;;;3.57;;
34134;SDS011;20410;55.578;12.968;2023-12-20T00:26:30;14.77;;;4.10;;
34134;SDS011;20410;55.578;12.968;2023-12-20T00:28:56;18.47;;;4.10;;
34134;SDS011;20410;55.578;12.968;2023-12-20T00:31:21;15.03;;;4.00;;
34134;SDS011;20410;55.578;12.968;2023-12-20T00:33:47;11.07;;;3.50;;
34134;SDS011;20410;55.578;12.968;2023-12-20T00:36:12;12.90;;;4.10;;
34134;SDS011;20410;55.578;12.968;2023-12-20T00:38:38;11.90;;;3.17;;
34134;SDS011;20410;55.578;12.968;2023-12-20T00:41:03;18.60;;;4.50;;
34134;SDS011;20410;55.578;12.968;2023-12-20T00:43:29;12.23;;;4.93;;
34134;SDS011;20410;55.578;12.968;2023-12-20T00:45:54;14.77;;;3.90;;
34134;SDS011;20410;55.578;12.968;2023-12-20T00:48:20;11.13;;;4.20;;
34134;SDS011;20410;55.578;12.968;2023-12-20T00:50:46;15.37;;;3.87;;
34134;SDS011;20410;55.578;12.968;2023-12-20T00:53:12;13.23;;;4.20;;
34134;SDS011;20410;55.578;12.968;2023-12-20T00:55:37;12.67;;;4.80;;
34134;SDS011;20410;55.578;12.968;2023-12-20T00:58:03;13.60;;;3.80;;
34134;SDS011;20410;55.578;12.968;2023-12-20T01:00:28;14.40;;;4.47;;
34134;SDS011;20410;55.578;12.968;2023-12-20T01:02:54;11.80;;;3.73;;
34134;SDS011;20410;55.578;12.968;2023-12-20T01:05:19;19.40;;;4.70;;
34134;SDS011;20410;55.578;12.968;2023-12-20T01:07:48;11.17;;;4.10;;
34134;SDS011;20410;55.578;12.968;2023-12-20T01:10:14;12.37;;;3.27;;
34134;SDS011;20410;55.578;12.968;2023-12-20T01:12:39;15.10;;;4.33;;
34134;SDS011;20410;55.578;12.968;2023-12-20T01:15:05;17.10;;;4.10;;
34134;SDS011;20410;55.578;12.968;2023-12-20T01:17:31;10.67;;;3.40;;
34134;SDS011;20410;55.578;12.968;2023-12-20T01:19:56;16.83;;;4.03;;
34134;SDS011;20410;55.578;12.968;2023-12-20T01:22:23;17.37;;;3.97;;
34134;SDS011;20410;55.578;12.968;2023-12-20T01:24:48;11.13;;;3.30;;
34134;SDS011;20410;55.578;12.968;2023-12-20T01:27:14;17.40;;;3.60;;
34134;SDS011;20410;55.578;12.968;2023-12-20T01:29:39;13.47;;;3.63;;
34134;SDS011;20410;55.578;12.968;2023-12-20T01:32:05;8.27;;;3.27;;
34134;SDS011;20410;55.578;12.968;2023-12-20T01:34:31;9.27;;;3.37;;
34134;SDS011;20410;55.578;12.968;2023-12-20T01:36:57;11.37;;;3.37;;
34134;SDS011;20410;55.578;12.968;2023-12-20T01:39:22;12.70;;;3.57;;
34134;SDS011;20410;55.578;12.968;2023-12-20T01:41:48;11.80;;;3.60;;
34134;SDS011;20410;55.578;12.968;2023-12-20T01:44:13;16.43;;;3.63;;
34134;SDS011;20410;55.578;12.968;2023-12-20T01:46:39;12.40;;;3.30;;
34134;SDS011;20410;55.578;12.968;2023-12-20T01:49:05;16.87;;;3.33;;
34134;SDS011;20410;55.578;12.968;2023-12-20T01:51:31;13.20;;;3.70;;
34134;SDS011;20410;55.578;12.968;2023-12-20T01:53:58;10.60;;;3.40;;
34134;SDS011;20410;55.578;12.968;2023-12-20T01:56:25;18.13;;;4.10;;
34134;SDS011;20410;55.578;12.968;2023-12-20T01:58:52;12.93;;;3.00;;
34134;SDS011;20410;55.578;12.968;2023-12-20T02:01:18;14.70;;;3.13;;
34134;SDS011;20410;55.578;12.968;2023-12-20T02:03:44;12.33;;;3.57;;
34134;SDS011;20410;55.578;12.968;2023-12-20T02:06:10;11.70;;;3.70;;
34134;SDS011;20410;55.578;12.968;2023-12-20T02:08:36;14.53;;;4.07;;
34134;SDS011;20410;55.578;12.968;2023-12-20T02:11:02;11.10;;;3.40;;
34134;SDS011;20410;55.578;12.968;2023-12-20T02:13:28;15.83;;;3.27;;
34134;SDS011;20410;55.578;12.968;2023-12-20T02:15:54;12.97;;;3.40;;
34134;SDS011;20410;55.578;12.968;2023-12-20T02:18:20;16.63;;;4.10;;
34134;SDS011;20410;55.578;12.968;2023-12-20T02:20:46;15.37;;;3.53;;
34134;SDS011;20410;55.578;12.968;2023-12-20T02:23:11;12.47;;;3.43;;
34134;SDS011;20410;55.578;12.968;2023-12-20T02:25:37;12.97;;;3.40;;
34134;SDS011;20410;55.578;12.968;2023-12-20T02:28:02;16.33;;;4.00;;
34134;SDS011;20410;55.578;12.968;2023-12-20T02:30:29;14.03;;;3.50;;
34134;SDS011;20410;55.578;12.968;2023-12-20T02:32:54;17.63;;;4.10;;
34134;SDS011;20410;55.578;12.968;2023-12-20T02:35:20;13.67;;;3.23;;
34134;SDS011;20410;55.578;12.968;2023-12-20T02:37:46;12.50;;;3.23;;
34134;SDS011;20410;55.578;12.968;2023-12-20T02:40:11;16.67;;;3.47;;
34134;SDS011;20410;55.578;12.968;2023-12-20T02:42:37;14.10;;;3.37;;
34134;SDS011;20410;55.578;12.968;2023-12-20T02:45:03;15.07;;;3.47;;
34134;SDS011;20410;55.578;12.968;2023-12-20T02:47:29;16.17;;;4.20;;
34134;SDS011;20410;55.578;12.968;2023-12-20T02:49:55;12.23;;;3.17;;
34134;SDS011;20410;55.578;12.968;2023-12-20T02:52:21;17.03;;;3.47;;
34134;SDS011;20410;55.578;12.968;2023-12-20T02:54:48;12.97;;;3.10;;
34134;SDS011;20410;55.578;12.968;2023-12-20T02:57:13;16.50;;;3.07;;
34134;SDS011;20410;55.578;12.968;2023-12-20T02:59:39;12.37;;;3.80;;
34134;SDS011;20410;55.578;12.968;2023-12-20T03:02:04;16.23;;;3.43;;
34134;SDS011;20410;55.578;12.968;2023-12-20T03:04:30;12.10;;;3.57;;
34134;SDS011;20410;55.578;12.968;2023-12-20T03:06:55;15.03;;;3.53;;
34134;SDS011;20410;55.578;12.968;2023-12-20T03:09:21;13.70;;;3.40;;
34134;SDS011;20410;55.578;12.968;2023-12-20T03:11:46;10.80;;;3.20;;
34134;SDS011;20410;55.578;12.968;2023-12-20T03:14:12;15.93;;;3.27;;
34134;SDS011;20410;55.578;12.968;2023-12-20T03:16:38;11.97;;;3.77;;
34134;SDS011;20410;55.578;12.968;2023-12-20T03:19:03;15.00;;;3.27;;
34134;SDS011;20410;55.578;12.968;2023-12-20T03:21:28;11.03;;;2.93;;
34134;SDS011;20410;55.578;12.968;2023-12-20T03:23:54;11.67;;;3.07;;
34134;SDS011;20410;55.578;12.968;2023-12-20T03:26:20;13.00;;;3.43;;
34134;SDS011;20410;55.578;12.968;2023-12-20T03:28:47;13.03;;;3.43;;
34134;SDS011;20410;55.578;12.968;2023-12-20T03:31:13;14.70;;;3.60;;
34134;SDS011;20410;55.578;12.968;2023-12-20T03:33:39;13.47;;;3.53;;
34134;SDS011;20410;55.578;12.968;2023-12-20T03:36:04;16.77;;;3.47;;
34134;SDS011;20410;55.578;12.968;2023-12-20T03:38:30;12.63;;;3.67;;
34134;SDS011;20410;55.578;12.968;2023-12-20T03:40:55;11.33;;;2.70;;
34134;SDS011;20410;55.578;12.968;2023-12-20T03:43:21;17.53;;;3.37;;
34134;SDS011;20410;55.578;12.968;2023-12-20T03:45:46;17.77;;;3.20;;
34134;SDS011;20410;55.578;12.968;2023-12-20T03:48:12;14.07;;;3.27;;
34134;SDS011;20410;55.578;12.968;2023-12-20T03:50:38;14.07;;;3.83;;
34134;SDS011;20410;55.578;12.968;2023-12-20T03:53:03;12.77;;;2.90;;
34134;SDS011;20410;55.578;12.968;2023-12-20T03:55:29;14.40;;;3.37;;
34134;SDS011;20410;55.578;12.968;2023-12-20T03:57:54;17.33;;;3.90;;
34134;SDS011;20410;55.578;12.968;2023-12-20T04:00:20;14.47;;;3.57;;
34134;SDS011;20410;55.578;12.968;2023-12-20T04:02:45;10.13;;;2.67;;
34134;SDS011;20410;55.578;12.968;2023-12-20T04:05:11;12.50;;;3.80;;
34134;SDS011;20410;55.578;12.968;2023-12-20T04:07:37;17.07;;;3.90;;
34134;SDS011;20410;55.578;12.968;2023-12-20T04:10:03;22.77;;;3.50;;
34134;SDS011;20410;55.578;12.968;2023-12-20T04:12:29;17.97;;;3.90;;
34134;SDS011;20410;55.578;12.968;2023-12-20T04:14:55;15.23;;;4.37;;
34134;SDS011;20410;55.578;12.968;2023-12-20T04:17:21;14.60;;;3.83;;
34134;SDS011;20410;55.578;12.968;2023-12-20T04:19:48;14.77;;;3.87;;
34134;SDS011;20410;55.578;12.968;2023-12-20T04:22:13;18.07;;;3.43;;
34134;SDS011;20410;55.578;12.968;2023-12-20T04:24:39;19.60;;;3.97;;
34134;SDS011;20410;55.578;12.968;2023-12-20T04:27:07;14.53;;;3.23;;
34134;SDS011;20410;55.578;12.968;2023-12-20T04:29:33;17.47;;;3.77;;
34134;SDS011;20410;55.578;12.968;2023-12-20T04:31:58;14.60;;;3.50;;
34134;SDS011;20410;55.578;12.968;2023-12-20T04:34:24;16.13;;;4.27;;
34134;SDS011;20410;55.578;12.968;2023-12-20T04:36:49;18.47;;;4.07;;
34134;SDS011;20410;55.578;12.968;2023-12-20T04:39:15;14.07;;;3.73;;
34134;SDS011;20410;55.578;12.968;2023-12-20T04:41:41;15.23;;;3.27;;
34134;SDS011;20410;55.578;12.968;2023-12-20T04:44:06;18.17;;;4.10;;
34134;SDS011;20410;55.578;12.968;2023-12-20T04:46:32;17.00;;;3.40;;
34134;SDS011;20410;55.578;12.968;2023-12-20T04:48:57;14.37;;;3.80;;
34134;SDS011;20410;55.578;12.968;2023-12-20T04:51:23;17.57;;;3.60;;
34134;SDS011;20410;55.578;12.968;2023-12-20T04:53:48;17.57;;;3.97;;
34134;SDS011;20410;55.578;12.968;2023-12-20T04:56:14;15.67;;;4.17;;
34134;SDS011;20410;55.578;12.968;2023-12-20T04:58:39;15.47;;;3.80;;
34134;SDS011;20410;55.578;12.968;2023-12-20T05:01:05;17.83;;;3.97;;
34134;SDS011;20410;55.578;12.968;2023-12-20T05:03:31;14.40;;;3.87;;
34134;SDS011;20410;55.578;12.968;2023-12-20T05:05:57;22.47;;;4.70;;
34134;SDS011;20410;55.578;12.968;2023-12-20T05:08:23;21.97;;;4.57;;
34134;SDS011;20410;55.578;12.968;2023-12-20T05:10:49;17.93;;;3.80;;
34134;SDS011;20410;55.578;12.968;2023-12-20T05:13:16;20.30;;;4.20;;
34134;SDS011;20410;55.578;12.968;2023-12-20T05:15:41;13.70;;;3.53;;
34134;SDS011;20410;55.578;12.968;2023-12-20T05:18:07;20.07;;;4.93;;
34134;SDS011;20410;55.578;12.968;2023-12-20T05:20:32;23.90;;;4.30;;
34134;SDS011;20410;55.578;12.968;2023-12-20T05:22:58;16.03;;;4.13;;
34134;SDS011;20410;55.578;12.968;2023-12-20T05:25:24;16.10;;;3.63;;
34134;SDS011;20410;55.578;12.968;2023-12-20T05:27:50;18.10;;;4.30;;
34134;SDS011;20410;55.578;12.968;2023-12-20T05:30:16;18.17;;;3.73;;
34134;SDS011;20410;55.578;12.968;2023-12-20T05:32:41;16.77;;;4.20;;
34134;SDS011;20410;55.578;12.968;2023-12-20T05:35:07;13.20;;;3.93;;
34134;SDS011;20410;55.578;12.968;2023-12-20T05:37:32;16.30;;;4.23;;
34134;SDS011;20410;55.578;12.968;2023-12-20T05:39:58;18.87;;;4.37;;
34134;SDS011;20410;55.578;12.968;2023-12-20T05:42:23;16.90;;;4.07;;
34134;SDS011;20410;55.578;12.968;2023-12-20T05:44:49;17.17;;;3.70;;
34134;SDS011;20410;55.578;12.968;2023-12-20T05:47:15;18.40;;;4.30;;
34134;SDS011;20410;55.578;12.968;2023-12-20T05:49:41;19.13;;;4.30;;
34134;SDS011;20410;55.578;12.968;2023-12-20T05:52:08;18.93;;;4.23;;
34134;SDS011;20410;55.578;12.968;2023-12-20T05:54:34;15.30;;;3.97;;
34134;SDS011;20410;55.578;12.968;2023-12-20T05:56:59;17.13;;;3.77;;
34134;SDS011;20410;55.578;12.968;2023-12-20T05:59:25;20.30;;;4.37;;
34134;SDS011;20410;55.578;12.968;2023-12-20T06:01:51;17.20;;;4.17;;
34134;SDS011;20410;55.578;12.968;2023-12-20T06:04:16;14.57;;;3.77;;
34134;SDS011;20410;55.578;12.968;2023-12-20T06:06:42;12.07;;;3.30;;
34134;SDS011;20410;55.578;12.968;2023-12-20T06:09:08;14.97;;;3.57;;
34134;SDS011;20410;55.578;12.968;2023-12-20T06:11:34;11.80;;;3.13;;
34134;SDS011;20410;55.578;12.968;2023-12-20T06:14:00;13.40;;;3.57;;
34134;SDS011;20410;55.578;12.968;2023-12-20T06:16:25;12.77;;;3.40;;
34134;SDS011;20410;55.578;12.968;2023-12-20T06:18:51;11.83;;;3.17;;
34134;SDS011;20410;55.578;12.968;2023-12-20T06:21:16;12.57;;;3.40;;
34134;SDS011;20410;55.578;12.968;2023-12-20T06:23:42;11.13;;;3.10;;
34134;SDS011;20410;55.578;12.968;2023-12-20T06:26:07;12.80;;;3.17;;
34134;SDS011;20410;55.578;12.968;2023-12-20T06:28:33;11.00;;;3.23;;
34134;SDS011;20410;55.578;12.968;2023-12-20T06:30:58;12.03;;;3.77;;
34134;SDS011;20410;55.578;12.968;2023-12-20T06:33:25;12.13;;;3.27;;
34134;SDS011;20410;55.578;12.968;2023-12-20T06:35:51;10.90;;;3.70;;
34134;SDS011;20410;55.578;12.968;2023-12-20T06:38:17;10.10;;;3.33;;
34134;SDS011;20410;55.578;12.968;2023-12-20T06:40:43;11.97;;;2.90;;
34134;SDS011;20410;55.578;12.968;2023-12-20T06:43:09;10.67;;;2.73;;
34134;SDS011;20410;55.578;12.968;2023-12-20T06:45:35;10.07;;;3.27;;
34134;SDS011;20410;55.578;12.968;2023-12-20T06:48:00;12.17;;;2.70;;
34134;SDS011;20410;55.578;12.968;2023-12-20T06:50:26;11.17;;;2.53;;
34134;SDS011;20410;55.578;12.968;2023-12-20T06:52:52;11.97;;;3.07;;
34134;SDS011;20410;55.578;12.968;2023-12-20T06:55:18;6.77;;;2.27;;
34134;SDS011;20410;55.578;12.968;2023-12-20T06:57:43;7.20;;;2.63;;
34134;SDS011;20410;55.578;12.968;2023-12-20T07:00:11;7.10;;;2.57;;
34134;SDS011;20410;55.578;12.968;2023-12-20T07:02:37;6.67;;;2.60;;
34134;SDS011;20410;55.578;12.968;2023-12-20T07:05:02;7.30;;;2.70;;
34134;SDS011;20410;55.578;12.968;2023-12-20T07:07:29;4.97;;;2.10;;
34134;SDS011;20410;55.578;12.968;2023-12-20T07:09:54;7.37;;;3.20;;
34134;SDS011;20410;55.578;12.968;2023-12-20T07:12:20;8.23;;;2.63;;
34134;SDS011;20410;55.578;12.968;2023-12-20T07:14:46;8.97;;;2.80;;
34134;SDS011;20410;55.578;12.968;2023-12-20T07:17:11;7.37;;;2.90;;
34134;SDS011;20410;55.578;12.968;2023-12-20T07:19:39;7.30;;;2.40;;
34134;SDS011;20410;55.578;12.968;2023-12-20T07:22:05;7.40;;;2.77;;
34134;SDS011;20410;55.578;12.968;2023-12-20T07:24:31;8.87;;;2.63;;
34134;SDS011;20410;55.578;12.968;2023-12-20T07:26:57;8.30;;;2.83;;
34134;SDS011;20410;55.578;12.968;2023-12-20T07:29:24;7.83;;;2.60;;
34134;SDS011;20410;55.578;12.968;2023-12-20T07:31:50;12.97;;;3.00;;
34134;SDS011;20410;55.578;12.968;2023-12-20T07:34:17;10.50;;;2.90;;
34134;SDS011;20410;55.578;12.968;2023-12-20T07:36:42;11.40;;;3.17;;
34134;SDS011;20410;55.578;12.968;2023-12-20T07:39:08;12.23;;;3.07;;
34134;SDS011;20410;55.578;12.968;2023-12-20T07:41:34;10.23;;;2.90;;
34134;SDS011;20410;55.578;12.968;2023-12-20T07:43:59;10.90;;;3.17;;
34134;SDS011;20410;55.578;12.968;2023-12-20T07:46:25;8.23;;;2.63;;
34134;SDS011;20410;55.578;12.968;2023-12-20T07:48:50;9.03;;;2.70;;
34134;SDS011;20410;55.578;12.968;2023-12-20T07:51:16;9.90;;;3.00;;
34134;SDS011;20410;55.578;12.968;2023-12-20T07:53:42;7.33;;;3.10;;
34134;SDS011;20410;55.578;12.968;2023-12-20T07:56:14;9.77;;;3.20;;
34134;SDS011;20410;55.578;12.968;2023-12-20T07:58:43;12.50;;;2.60;;
34134;SDS011;20410;55.578;12.968;2023-12-20T08:01:10;13.93;;;2.70;;
34134;SDS011;20410;55.578;12.968;2023-12-20T08:03:36;7.13;;;2.30;;
34134;SDS011;20410;55.578;12.968;2023-12-20T08:06:01;7.67;;;2.47;;
34134;SDS011;20410;55.578;12.968;2023-12-20T08:08:27;7.60;;;1.80;;
34134;SDS011;20410;55.578;12.968;2023-12-20T08:10:53;7.80;;;2.90;;
34134;SDS011;20410;55.578;12.968;2023-12-20T08:13:18;7.67;;;2.83;;
34134;SDS011;20410;55.578;12.968;2023-12-20T08:15:44;10.47;;;2.70;;
34134;SDS011;20410;55.578;12.968;2023-12-20T08:18:09;7.23;;;2.53;;
34134;SDS011;20410;55.578;12.968;2023-12-20T08:20:35;8.17;;;2.20;;
34134;SDS011;20410;55.578;12.968;2023-12-20T08:23:00;8.30;;;2.63;;
34134;SDS011;20410;55.578;12.968;2023-12-20T08:25:26;11.67;;;3.17;;
34134;SDS011;20410;55.578;12.968;2023-12-20T08:27:52;13.97;;;3.03;;
34134;SDS011;20410;55.578;12.968;2023-12-20T08:30:18;9.37;;;2.70;;
34134;SDS011;20410;55.578;12.968;2023-12-20T08:32:46;6.70;;;2.67;;
34134;SDS011;20410;55.578;12.968;2023-12-20T08:35:15;5.67;;;2.10;;
34134;SDS011;20410;55.578;12.968;2023-12-20T08:37:41;6.13;;;2.60;;
34134;SDS011;20410;55.578;12.968;2023-12-20T08:40:06;6.10;;;1.93;;
34134;SDS011;20410;55.578;12.968;2023-12-20T08:42:32;6.03;;;1.93;;
34134;SDS011;20410;55.578;12.968;2023-12-20T08:44:58;4.97;;;2.20;;
34134;SDS011;20410;55.578;12.968;2023-12-20T08:47:24;7.20;;;3.03;;
34134;SDS011;20410;55.578;12.968;2023-12-20T08:49:50;6.57;;;2.00;;
34134;SDS011;20410;55.578;12.968;2023-12-20T08:52:15;6.47;;;2.23;;
34134;SDS011;20410;55.578;12.968;2023-12-20T08:54:41;6.27;;;2.20;;
34134;SDS011;20410;55.578;12.968;2023-12-20T08:57:06;6.10;;;2.20;;
34134;SDS011;20410;55.578;12.968;2023-12-20T08:59:32;8.50;;;2.67;;
34134;SDS011;20410;55.578;12.968;2023-12-20T09:01:58;9.37;;;2.33;;
34134;SDS011;20410;55.578;12.968;2023-12-20T09:04:24;11.43;;;2.63;;
34134;SDS011;20410;55.578;12.968;2023-12-20T09:06:50;5.73;;;2.90;;
34134;SDS011;20410;55.578;12.968;2023-12-20T09:09:15;8.23;;;2.43;;
34134;SDS011;20410;55.578;12.968;2023-12-20T09:11:41;8.80;;;2.80;;
34134;SDS011;20410;55.578;12.968;2023-12-20T09:14:07;8.10;;;2.60;;
34134;SDS011;20410;55.578;12.968;2023-12-20T09:16:32;8.00;;;2.30;;
34134;SDS011;20410;55.578;12.968;2023-12-20T09:18:58;9.93;;;2.23;;
34134;SDS011;20410;55.578;12.968;2023-12-20T09:21:24;9.63;;;2.90;;
34134;SDS011;20410;55.578;12.968;2023-12-20T09:23:49;9.27;;;2.30;;
34134;SDS011;20410;55.578;12.968;2023-12-20T09:26:15;11.30;;;3.00;;
34134;SDS011;20410;55.578;12.968;2023-12-20T09:28:40;8.77;;;2.73;;
34134;SDS011;20410;55.578;12.968;2023-12-20T09:31:06;6.50;;;2.10;;
34134;SDS011;20410;55.578;12.968;2023-12-20T09:33:34;10.33;;;2.77;;
34134;SDS011;20410;55.578;12.968;2023-12-20T09:36:00;10.60;;;2.73;;
34134;SDS011;20410;55.578;12.968;2023-12-20T09:38:26;9.87;;;2.90;;
34134;SDS011;20410;55.578;12.968;2023-12-20T09:40:51;11.33;;;2.20;;
34134;SDS011;20410;55.578;12.968;2023-12-20T09:43:19;8.07;;;2.47;;
34134;SDS011;20410;55.578;12.968;2023-12-20T09:45:48;6.37;;;2.23;;
34134;SDS011;20410;55.578;12.968;2023-12-20T09:48:17;7.47;;;2.87;;
34134;SDS011;20410;55.578;12.968;2023-12-20T09:50:44;6.63;;;2.40;;
34134;SDS011;20410;55.578;12.968;2023-12-20T09:53:11;12.23;;;3.53;;
34134;SDS011;20410;55.578;12.968;2023-12-20T09:55:40;5.93;;;2.20;;
34134;SDS011;20410;55.578;12.968;2023-12-20T09:58:07;9.30;;;2.50;;
34134;SDS011;20410;55.578;12.968;2023-12-20T10:00:34;9.00;;;2.77;;
34134;SDS011;20410;55.578;12.968;2023-12-20T10:03:00;9.30;;;3.50;;
34134;SDS011;20410;55.578;12.968;2023-12-20T10:05:30;8.47;;;2.70;;
34134;SDS011;20410;55.578;12.968;2023-12-20T10:07:57;10.40;;;2.63;;
34134;SDS011;20410;55.578;12.968;2023-12-20T10:10:24;6.27;;;2.80;;
34134;SDS011;20410;55.578;12.968;2023-12-20T10:13:03;11.17;;;3.17;;
34134;SDS011;20410;55.578;12.968;2023-12-20T10:15:33;10.37;;;3.20;;
34134;SDS011;20410;55.578;12.968;2023-12-20T10:18:00;7.97;;;2.93;;
34134;SDS011;20410;55.578;12.968;2023-12-20T10:20:26;8.03;;;3.00;;
34134;SDS011;20410;55.578;12.968;2023-12-20T10:22:54;9.87;;;3.63;;
34134;SDS011;20410;55.578;12.968;2023-12-20T10:25:23;12.10;;;3.50;;
34134;SDS011;20410;55.578;12.968;2023-12-20T10:27:50;7.50;;;2.73;;
34134;SDS011;20410;55.578;12.968;2023-12-20T10:30:33;14.17;;;3.80;;
34134;SDS011;20410;55.578;12.968;2023-12-20T10:32:58;14.50;;;3.43;;
34134;SDS011;20410;55.578;12.968;2023-12-20T10:35:24;11.63;;;3.80;;
34134;SDS011;20410;55.578;12.968;2023-12-20T10:37:50;12.90;;;3.37;;
34134;SDS011;20410;55.578;12.968;2023-12-20T10:40:19;14.93;;;3.90;;
34134;SDS011;20410;55.578;12.968;2023-12-20T10:42:46;13.53;;;3.30;;
34134;SDS011;20410;55.578;12.968;2023-12-20T10:45:12;11.90;;;3.60;;
34134;SDS011;20410;55.578;12.968;2023-12-20T10:47:37;14.67;;;3.63;;
34134;SDS011;20410;55.578;12.968;2023-12-20T10:50:05;14.60;;;3.97;;
34134;SDS011;20410;55.578;12.968;2023-12-20T10:52:32;14.97;;;3.43;;
34134;SDS011;20410;55.578;12.968;2023-12-20T10:55:00;13.60;;;3.60;;
34134;SDS011;20410;55.578;12.968;2023-12-20T10:57:26;11.83;;;3.10;;
34134;SDS011;20410;55.578;12.968;2023-12-20T10:59:53;15.10;;;3.77;;
34134;SDS011;20410;55.578;12.968;2023-12-20T11:02:19;12.77;;;3.70;;
34134;SDS011;20410;55.578;12.968;2023-12-20T11:04:53;13.87;;;3.67;;
34134;SDS011;20410;55.578;12.968;2023-12-20T11:10:14;12.47;;;4.00;;
34134;SDS011;20410;55.578;12.968;2023-12-20T11:12:58;14.47;;;3.43;;
34134;SDS011;20410;55.578;12.968;2023-12-20T11:15:36;11.27;;;2.90;;
34134;SDS011;20410;55.578;12.968;2023-12-20T11:18:02;12.37;;;3.60;;
34134;SDS011;20410;55.578;12.968;2023-12-20T11:20:39;13.63;;;3.97;;
34134;SDS011;20410;55.578;12.968;2023-12-20T11:23:05;15.37;;;3.93;;
34134;SDS011;20410;55.578;12.968;2023-12-20T11:28:23;9.53;;;3.20;;
34134;SDS011;20410;55.578;12.968;2023-12-20T11:30:53;9.23;;;2.93;;
34134;SDS011;20410;55.578;12.968;2023-12-20T11:33:21;12.70;;;3.07;;
34134;SDS011;20410;55.578;12.968;2023-12-20T11:36:00;6.93;;;2.67;;
34134;SDS011;20410;55.578;12.968;2023-12-20T11:38:26;5.33;;;2.27;;
34134;SDS011;20410;55.578;12.968;2023-12-20T11:40:53;5.50;;;1.60;;
34134;SDS011;20410;55.578;12.968;2023-12-20T11:43:30;6.23;;;2.13;;
34134;SDS011;20410;55.578;12.968;2023-12-20T11:46:01;5.33;;;1.93;;
34134;SDS011;20410;55.578;12.968;2023-12-20T11:48:29;4.13;;;1.70;;
34134;SDS011;20410;55.578;12.968;2023-12-20T11:50:56;5.43;;;1.87;;
34134;SDS011;20410;55.578;12.968;2023-12-20T11:53:21;8.73;;;2.33;;
34134;SDS011;20410;55.578;12.968;2023-12-20T11:55:48;7.93;;;2.37;;
34134;SDS011;20410;55.578;12.968;2023-12-20T11:58:14;6.83;;;2.20;;
34134;SDS011;20410;55.578;12.968;2023-12-20T12:00:41;7.07;;;2.17;;
34134;SDS011;20410;55.578;12.968;2023-12-20T12:03:08;6.53;;;1.90;;
34134;SDS011;20410;55.578;12.968;2023-12-20T12:05:34;8.07;;;2.80;;
34134;SDS011;20410;55.578;12.968;2023-12-20T12:08:00;8.57;;;2.63;;
34134;SDS011;20410;55.578;12.968;2023-12-20T12:10:26;7.57;;;2.70;;
34134;SDS011;20410;55.578;12.968;2023-12-20T12:12:51;8.37;;;2.73;;
34134;SDS011;20410;55.578;12.968;2023-12-20T12:15:17;6.20;;;2.33;;
34134;SDS011;20410;55.578;12.968;2023-12-20T12:17:43;6.50;;;2.43;;
34134;SDS011;20410;55.578;12.968;2023-12-20T12:20:08;5.47;;;2.07;;
34134;SDS011;20410;55.578;12.968;2023-12-20T12:22:35;7.50;;;2.43;;
34134;SDS011;20410;55.578;12.968;2023-12-20T12:25:11;8.60;;;2.87;;
34134;SDS011;20410;55.578;12.968;2023-12-20T12:27:39;6.77;;;2.60;;
34134;SDS011;20410;55.578;12.968;2023-12-20T12:30:05;8.70;;;3.20;;
34134;SDS011;20410;55.578;12.968;2023-12-20T12:32:34;9.80;;;2.33;;
34134;SDS011;20410;55.578;12.968;2023-12-20T12:35:02;5.00;;;2.43;;
34134;SDS011;20410;55.578;12.968;2023-12-20T12:37:31;11.27;;;2.73;;
34134;SDS011;20410;55.578;12.968;2023-12-20T12:39:58;6.87;;;2.70;;
34134;SDS011;20410;55.578;12.968;2023-12-20T12:42:24;8.53;;;2.50;;
34134;SDS011;20410;55.578;12.968;2023-12-20T12:44:53;11.03;;;3.17;;
34134;SDS011;20410;55.578;12.968;2023-12-20T12:47:19;6.10;;;2.50;;
34134;SDS011;20410;55.578;12.968;2023-12-20T12:49:45;6.83;;;2.40;;
34134;SDS011;20410;55.578;12.968;2023-12-20T12:52:10;6.87;;;2.47;;
34134;SDS011;20410;55.578;12.968;2023-12-20T12:54:36;9.50;;;2.70;;
34134;SDS011;20410;55.578;12.968;2023-12-20T12:57:01;10.07;;;2.73;;
34134;SDS011;20410;55.578;12.968;2023-12-20T12:59:27;8.70;;;2.73;;
34134;SDS011;20410;55.578;12.968;2023-12-20T13:01:52;6.87;;;2.37;;
34134;SDS011;20410;55.578;12.968;2023-12-20T13:04:18;8.63;;;2.40;;
34134;SDS011;20410;55.578;12.968;2023-12-20T13:06:44;6.20;;;2.37;;
34134;SDS011;20410;55.578;12.968;2023-12-20T13:09:09;8.03;;;2.47;;
34134;SDS011;20410;55.578;12.968;2023-12-20T13:11:35;6.63;;;2.60;;
34134;SDS011;20410;55.578;12.968;2023-12-20T13:14:00;10.73;;;3.47;;
34134;SDS011;20410;55.578;12.968;2023-12-20T13:16:26;13.27;;;3.33;;
34134;SDS011;20410;55.578;12.968;2023-12-20T13:18:52;11.23;;;3.03;;
34134;SDS011;20410;55.578;12.968;2023-12-20T13:21:17;7.17;;;2.93;;
34134;SDS011;20410;55.578;12.968;2023-12-20T13:23:43;7.00;;;2.80;;
34134;SDS011;20410;55.578;12.968;2023-12-20T13:26:08;7.00;;;2.47;;
34134;SDS011;20410;55.578;12.968;2023-12-20T13:28:34;9.33;;;2.97;;
34134;SDS011;20410;55.578;12.968;2023-12-20T13:30:59;5.77;;;2.40;;
34134;SDS011;20410;55.578;12.968;2023-12-20T13:33:25;8.40;;;2.50;;
34134;SDS011;20410;55.578;12.968;2023-12-20T13:35:51;6.77;;;2.83;;
34134;SDS011;20410;55.578;12.968;2023-12-20T13:38:16;5.60;;;2.37;;
34134;SDS011;20410;55.578;12.968;2023-12-20T13:40:42;10.97;;;2.80;;
34134;SDS011;20410;55.578;12.968;2023-12-20T13:43:08;8.83;;;3.00;;
34134;SDS011;20410;55.578;12.968;2023-12-20T13:45:35;7.47;;;2.97;;
34134;SDS011;20410;55.578;12.968;2023-12-20T13:48:01;5.70;;;2.83;;
34134;SDS011;20410;55.578;12.968;2023-12-20T13:50:26;6.20;;;2.70;;
34134;SDS011;20410;55.578;12.968;2023-12-20T13:52:52;7.57;;;2.77;;
34134;SDS011;20410;55.578;12.968;2023-12-20T13:55:17;7.87;;;2.67;;
34134;SDS011;20410;55.578;12.968;2023-12-20T13:57:47;5.47;;;2.67;;
34134;SDS011;20410;55.578;12.968;2023-12-20T14:00:13;7.43;;;2.53;;
34134;SDS011;20410;55.578;12.968;2023-12-20T14:02:40;7.27;;;2.53;;
34134;SDS011;20410;55.578;12.968;2023-12-20T14:05:06;6.20;;;2.63;;
34134;SDS011;20410;55.578;12.968;2023-12-20T14:07:33;6.30;;;2.60;;
34134;SDS011;20410;55.578;12.968;2023-12-20T14:09:58;7.50;;;2.87;;
34134;SDS011;20410;55.578;12.968;2023-12-20T14:12:24;5.97;;;2.50;;
34134;SDS011;20410;55.578;12.968;2023-12-20T14:14:50;6.43;;;2.90;;
34134;SDS011;20410;55.578;12.968;2023-12-20T14:17:16;10.23;;;3.20;;
34134;SDS011;20410;55.578;12.968;2023-12-20T14:19:43;9.43;;;3.33;;
34134;SDS011;20410;55.578;12.968;2023-12-20T14:22:08;9.17;;;3.80;;
34134;SDS011;20410;55.578;12.968;2023-12-20T14:24:35;9.17;;;4.10;;
34134;SDS011;20410;55.578;12.968;2023-12-20T14:27:01;9.03;;;3.50;;